sensor_id;sensor_type;location;lat;lon;timestamp;P1;durP1;ratioP1;P2;durP2;ratioP2
35494;SDS011;21608;49.300;6.846;2022-08-01T00:00:51;2.88;;;2.58;;
35494;SDS011;21608;49.300;6.846;2022-08-01T00:03:53;2.33;;;2.13;;
35494;SDS011;21608;49.300;6.846;2022-08-01T00:06:55;2.13;;;2.03;;
35494;SDS011;21608;49.300;6.846;2022-08-01T00:09:57;2.40;;;2.20;;
35494;SDS011;21608;49.300;6.846;2022-08-01T00:12:59;2.58;;;2.38;;
35494;SDS011;21608;49.300;6.846;2022-08-01T00:16:01;2.28;;;2.03;;
35494;SDS011;21608;49.300;6.846;2022-08-01T00:19:03;2.42;;;2.22;;
35494;SDS011;21608;49.300;6.846;2022-08-01T00:22:05;3.47;;;1.83;;
35494;SDS011;21608;49.300;6.846;2022-08-01T00:25:08;2.00;;;1.80;;
35494;SDS011;21608;49.300;6.846;2022-08-01T00:28:10;2.05;;;1.95;;
35494;SDS011;21608;49.300;6.846;2022-08-01T00:31:12;2.35;;;2.15;;
35494;SDS011;21608;49.300;6.846;2022-08-01T00:34:14;2.10;;;1.90;;
35494;SDS011;21608;49.300;6.846;2022-08-01T00:37:16;2.42;;;1.77;;
35494;SDS011;21608;49.300;6.846;2022-08-01T00:40:18;3.60;;;1.65;;
35494;SDS011;21608;49.300;6.846;2022-08-01T00:43:20;2.67;;;2.17;;
35494;SDS011;21608;49.300;6.846;2022-08-01T00:46:21;1.92;;;1.70;;
35494;SDS011;21608;49.300;6.846;2022-08-01T00:49:23;2.20;;;1.80;;
35494;SDS011;21608;49.300;6.846;2022-08-01T00:52:25;2.28;;;1.75;;
35494;SDS011;21608;49.300;6.846;2022-08-01T00:55:28;2.90;;;1.52;;
35494;SDS011;21608;49.300;6.846;2022-08-01T00:58:30;1.98;;;1.85;;
35494;SDS011;21608;49.300;6.846;2022-08-01T01:01:33;1.90;;;1.50;;
35494;SDS011;21608;49.300;6.846;2022-08-01T01:04:40;3.45;;;1.67;;
35494;SDS011;21608;49.300;6.846;2022-08-01T01:07:50;4.82;;;1.50;;
35494;SDS011;21608;49.300;6.846;2022-08-01T01:11:02;1.63;;;1.45;;
35494;SDS011;21608;49.300;6.846;2022-08-01T01:14:12;1.38;;;1.27;;
35494;SDS011;21608;49.300;6.846;2022-08-01T01:17:24;1.55;;;1.45;;
35494;SDS011;21608;49.300;6.846;2022-08-01T01:20:56;2.15;;;1.95;;
35494;SDS011;21608;49.300;6.846;2022-08-01T01:30:46;2.92;;;1.58;;
35494;SDS011;21608;49.300;6.846;2022-08-01T01:33:55;2.28;;;1.92;;
35494;SDS011;21608;49.300;6.846;2022-08-01T01:36:59;1.80;;;1.50;;
35494;SDS011;21608;49.300;6.846;2022-08-01T01:40:03;2.38;;;1.63;;
35494;SDS011;21608;49.300;6.846;2022-08-01T01:43:09;1.80;;;1.70;;
35494;SDS011;21608;49.300;6.846;2022-08-01T01:46:13;3.67;;;1.80;;
35494;SDS011;21608;49.300;6.846;2022-08-01T01:49:20;3.50;;;1.95;;
35494;SDS011;21608;49.300;6.846;2022-08-01T01:52:24;3.28;;;1.48;;
35494;SDS011;21608;49.300;6.846;2022-08-01T01:55:29;2.85;;;1.88;;
35494;SDS011;21608;49.300;6.846;2022-08-01T01:58:33;3.47;;;1.70;;
35494;SDS011;21608;49.300;6.846;2022-08-01T02:01:35;2.45;;;1.80;;
35494;SDS011;21608;49.300;6.846;2022-08-01T02:04:57;2.78;;;1.70;;
35494;SDS011;21608;49.300;6.846;2022-08-01T02:08:00;2.53;;;1.40;;
35494;SDS011;21608;49.300;6.846;2022-08-01T02:11:05;1.70;;;1.60;;
35494;SDS011;21608;49.300;6.846;2022-08-01T02:14:19;2.17;;;1.60;;
35494;SDS011;21608;49.300;6.846;2022-08-01T02:17:23;6.10;;;1.95;;
35494;SDS011;21608;49.300;6.846;2022-08-01T02:20:26;1.52;;;1.42;;
35494;SDS011;21608;49.300;6.846;2022-08-01T02:23:32;2.42;;;1.35;;
35494;SDS011;21608;49.300;6.846;2022-08-01T02:26:38;1.60;;;1.50;;
35494;SDS011;21608;49.300;6.846;2022-08-01T02:29:43;1.80;;;1.23;;
35494;SDS011;21608;49.300;6.846;2022-08-01T02:33:16;2.70;;;1.40;;
35494;SDS011;21608;49.300;6.846;2022-08-01T02:36:23;1.20;;;1.10;;
35494;SDS011;21608;49.300;6.846;2022-08-01T02:39:32;1.85;;;1.60;;
35494;SDS011;21608;49.300;6.846;2022-08-01T02:42:38;2.45;;;1.50;;
35494;SDS011;21608;49.300;6.846;2022-08-01T02:45:45;3.42;;;1.60;;
35494;SDS011;21608;49.300;6.846;2022-08-01T02:48:52;2.10;;;1.60;;
35494;SDS011;21608;49.300;6.846;2022-08-01T02:51:56;1.58;;;1.42;;
35494;SDS011;21608;49.300;6.846;2022-08-01T02:55:00;2.88;;;1.55;;
35494;SDS011;21608;49.300;6.846;2022-08-01T02:58:03;1.88;;;1.55;;
35494;SDS011;21608;49.300;6.846;2022-08-01T03:01:09;1.52;;;1.40;;
35494;SDS011;21608;49.300;6.846;2022-08-01T03:04:12;4.53;;;1.60;;
35494;SDS011;21608;49.300;6.846;2022-08-01T03:07:15;1.95;;;1.42;;
35494;SDS011;21608;49.300;6.846;2022-08-01T03:10:19;2.10;;;1.30;;
35494;SDS011;21608;49.300;6.846;2022-08-01T03:13:22;1.63;;;1.20;;
35494;SDS011;21608;49.300;6.846;2022-08-01T03:16:25;3.50;;;1.73;;
35494;SDS011;21608;49.300;6.846;2022-08-01T03:19:28;2.58;;;1.35;;
35494;SDS011;21608;49.300;6.846;2022-08-01T03:22:31;1.65;;;1.50;;
35494;SDS011;21608;49.300;6.846;2022-08-01T03:25:35;1.55;;;1.45;;
35494;SDS011;21608;49.300;6.846;2022-08-01T03:28:40;1.70;;;1.52;;
35494;SDS011;21608;49.300;6.846;2022-08-01T03:31:45;1.92;;;1.52;;
35494;SDS011;21608;49.300;6.846;2022-08-01T03:34:49;2.15;;;1.60;;
35494;SDS011;21608;49.300;6.846;2022-08-01T03:37:52;3.47;;;1.52;;
35494;SDS011;21608;49.300;6.846;2022-08-01T03:41:18;3.13;;;1.27;;
35494;SDS011;21608;49.300;6.846;2022-08-01T03:44:23;1.38;;;1.30;;
35494;SDS011;21608;49.300;6.846;2022-08-01T03:47:29;1.98;;;1.50;;
35494;SDS011;21608;49.300;6.846;2022-08-01T03:50:41;1.52;;;1.42;;
35494;SDS011;21608;49.300;6.846;2022-08-01T03:53:45;4.10;;;1.55;;
35494;SDS011;21608;49.300;6.846;2022-08-01T03:56:49;1.02;;;1.00;;
35494;SDS011;21608;49.300;6.846;2022-08-01T03:59:52;1.73;;;1.60;;
35494;SDS011;21608;49.300;6.846;2022-08-01T04:02:54;1.80;;;1.30;;
35494;SDS011;21608;49.300;6.846;2022-08-01T04:05:57;3.53;;;1.40;;
35494;SDS011;21608;49.300;6.846;2022-08-01T04:08:58;2.28;;;1.45;;
35494;SDS011;21608;49.300;6.846;2022-08-01T04:12:01;2.15;;;1.40;;
35494;SDS011;21608;49.300;6.846;2022-08-01T04:15:12;1.80;;;1.70;;
35494;SDS011;21608;49.300;6.846;2022-08-01T04:18:15;1.70;;;1.60;;
35494;SDS011;21608;49.300;6.846;2022-08-01T04:21:23;1.85;;;1.33;;
35494;SDS011;21608;49.300;6.846;2022-08-01T04:24:30;1.63;;;1.52;;
35494;SDS011;21608;49.300;6.846;2022-08-01T04:27:35;1.58;;;1.20;;
35494;SDS011;21608;49.300;6.846;2022-08-01T04:30:52;2.33;;;1.60;;
35494;SDS011;21608;49.300;6.846;2022-08-01T04:34:02;1.92;;;1.50;;
35494;SDS011;21608;49.300;6.846;2022-08-01T04:37:09;7.40;;;1.90;;
35494;SDS011;21608;49.300;6.846;2022-08-01T04:40:13;1.10;;;1.10;;
35494;SDS011;21608;49.300;6.846;2022-08-01T04:43:17;1.77;;;1.63;;
35494;SDS011;21608;49.300;6.846;2022-08-01T04:46:20;2.15;;;1.80;;
35494;SDS011;21608;49.300;6.846;2022-08-01T04:49:22;2.83;;;1.40;;
35494;SDS011;21608;49.300;6.846;2022-08-01T04:52:32;1.65;;;1.48;;
35494;SDS011;21608;49.300;6.846;2022-08-01T04:55:34;1.83;;;1.52;;
35494;SDS011;21608;49.300;6.846;2022-08-01T04:58:36;3.53;;;1.30;;
35494;SDS011;21608;49.300;6.846;2022-08-01T05:01:38;2.15;;;1.60;;
35494;SDS011;21608;49.300;6.846;2022-08-01T05:04:41;2.53;;;1.80;;
35494;SDS011;21608;49.300;6.846;2022-08-01T05:07:44;1.55;;;1.45;;
35494;SDS011;21608;49.300;6.846;2022-08-01T05:10:46;2.20;;;1.70;;
35494;SDS011;21608;49.300;6.846;2022-08-01T05:13:48;2.10;;;1.40;;
35494;SDS011;21608;49.300;6.846;2022-08-01T05:16:50;2.35;;;1.67;;
35494;SDS011;21608;49.300;6.846;2022-08-01T05:19:52;3.10;;;1.80;;
35494;SDS011;21608;49.300;6.846;2022-08-01T05:22:54;3.45;;;1.63;;
35494;SDS011;21608;49.300;6.846;2022-08-01T05:25:57;3.38;;;1.60;;
35494;SDS011;21608;49.300;6.846;2022-08-01T05:29:00;2.13;;;1.63;;
35494;SDS011;21608;49.300;6.846;2022-08-01T05:32:02;4.13;;;1.90;;
35494;SDS011;21608;49.300;6.846;2022-08-01T05:35:05;1.60;;;1.50;;
35494;SDS011;21608;49.300;6.846;2022-08-01T05:38:07;2.63;;;1.48;;
35494;SDS011;21608;49.300;6.846;2022-08-01T05:44:17;5.10;;;1.77;;
35494;SDS011;21608;49.300;6.846;2022-08-01T05:47:18;1.98;;;1.65;;
35494;SDS011;21608;49.300;6.846;2022-08-01T05:50:20;2.65;;;1.58;;
35494;SDS011;21608;49.300;6.846;2022-08-01T05:53:22;1.60;;;1.50;;
35494;SDS011;21608;49.300;6.846;2022-08-01T05:56:24;2.15;;;1.48;;
35494;SDS011;21608;49.300;6.846;2022-08-01T05:59:32;2.38;;;1.70;;
35494;SDS011;21608;49.300;6.846;2022-08-01T06:02:34;1.38;;;1.17;;
35494;SDS011;21608;49.300;6.846;2022-08-01T06:05:40;1.77;;;1.50;;
35494;SDS011;21608;49.300;6.846;2022-08-01T06:08:42;1.85;;;1.60;;
35494;SDS011;21608;49.300;6.846;2022-08-01T06:11:44;2.45;;;1.25;;
35494;SDS011;21608;49.300;6.846;2022-08-01T06:14:46;2.30;;;1.45;;
35494;SDS011;21608;49.300;6.846;2022-08-01T06:17:48;3.00;;;1.50;;
35494;SDS011;21608;49.300;6.846;2022-08-01T06:20:49;2.60;;;1.20;;
35494;SDS011;21608;49.300;6.846;2022-08-01T06:23:51;1.60;;;1.50;;
35494;SDS011;21608;49.300;6.846;2022-08-01T06:26:53;1.65;;;1.55;;
35494;SDS011;21608;49.300;6.846;2022-08-01T06:29:55;2.50;;;1.50;;
35494;SDS011;21608;49.300;6.846;2022-08-01T06:32:57;1.70;;;1.60;;
35494;SDS011;21608;49.300;6.846;2022-08-01T06:36:01;1.30;;;1.20;;
35494;SDS011;21608;49.300;6.846;2022-08-01T06:39:03;2.25;;;1.50;;
35494;SDS011;21608;49.300;6.846;2022-08-01T06:42:04;2.88;;;1.27;;
35494;SDS011;21608;49.300;6.846;2022-08-01T06:45:08;5.75;;;1.25;;
35494;SDS011;21608;49.300;6.846;2022-08-01T06:48:11;1.35;;;1.15;;
35494;SDS011;21608;49.300;6.846;2022-08-01T06:51:13;1.48;;;1.38;;
35494;SDS011;21608;49.300;6.846;2022-08-01T06:54:17;3.25;;;1.20;;
35494;SDS011;21608;49.300;6.846;2022-08-01T06:57:19;1.30;;;1.20;;
35494;SDS011;21608;49.300;6.846;2022-08-01T07:00:22;2.17;;;1.30;;
35494;SDS011;21608;49.300;6.846;2022-08-01T07:03:25;1.35;;;1.25;;
35494;SDS011;21608;49.300;6.846;2022-08-01T07:06:48;1.80;;;1.48;;
35494;SDS011;21608;49.300;6.846;2022-08-01T07:09:50;3.70;;;1.35;;
35494;SDS011;21608;49.300;6.846;2022-08-01T07:12:53;1.42;;;1.30;;
35494;SDS011;21608;49.300;6.846;2022-08-01T07:15:55;1.23;;;1.13;;
35494;SDS011;21608;49.300;6.846;2022-08-01T07:18:57;2.53;;;1.08;;
35494;SDS011;21608;49.300;6.846;2022-08-01T07:21:59;1.33;;;1.23;;
35494;SDS011;21608;49.300;6.846;2022-08-01T07:25:04;2.00;;;1.40;;
35494;SDS011;21608;49.300;6.846;2022-08-01T07:28:07;1.20;;;1.10;;
35494;SDS011;21608;49.300;6.846;2022-08-01T07:31:09;0.80;;;0.80;;
35494;SDS011;21608;49.300;6.846;2022-08-01T07:34:10;0.93;;;0.93;;
35494;SDS011;21608;49.300;6.846;2022-08-01T07:37:12;0.88;;;0.88;;
35494;SDS011;21608;49.300;6.846;2022-08-01T07:40:14;1.60;;;1.38;;
35494;SDS011;21608;49.300;6.846;2022-08-01T07:43:17;1.05;;;0.95;;
35494;SDS011;21608;49.300;6.846;2022-08-01T07:46:19;1.88;;;0.90;;
35494;SDS011;21608;49.300;6.846;2022-08-01T07:49:21;0.80;;;0.80;;
35494;SDS011;21608;49.300;6.846;2022-08-01T07:52:23;0.73;;;0.70;;
35494;SDS011;21608;49.300;6.846;2022-08-01T07:55:25;1.40;;;1.10;;
35494;SDS011;21608;49.300;6.846;2022-08-01T07:58:27;0.85;;;0.85;;
35494;SDS011;21608;49.300;6.846;2022-08-01T08:01:30;0.82;;;0.80;;
35494;SDS011;21608;49.300;6.846;2022-08-01T08:04:32;1.15;;;0.73;;
35494;SDS011;21608;49.300;6.846;2022-08-01T08:07:34;0.60;;;0.60;;
35494;SDS011;21608;49.300;6.846;2022-08-01T08:10:36;0.98;;;0.73;;
35494;SDS011;21608;49.300;6.846;2022-08-01T08:13:38;1.00;;;0.80;;
35494;SDS011;21608;49.300;6.846;2022-08-01T08:16:40;0.75;;;0.70;;
35494;SDS011;21608;49.300;6.846;2022-08-01T08:19:43;1.10;;;0.63;;
35494;SDS011;21608;49.300;6.846;2022-08-01T08:22:45;1.10;;;0.60;;
35494;SDS011;21608;49.300;6.846;2022-08-01T08:25:47;0.82;;;0.70;;
35494;SDS011;21608;49.300;6.846;2022-08-01T08:28:49;3.95;;;0.98;;
35494;SDS011;21608;49.300;6.846;2022-08-01T08:31:51;0.52;;;0.52;;
35494;SDS011;21608;49.300;6.846;2022-08-01T08:34:54;1.13;;;0.70;;
35494;SDS011;21608;49.300;6.846;2022-08-01T08:37:56;1.33;;;0.80;;
35494;SDS011;21608;49.300;6.846;2022-08-01T08:40:59;1.08;;;0.50;;
35494;SDS011;21608;49.300;6.846;2022-08-01T08:44:01;0.60;;;0.50;;
35494;SDS011;21608;49.300;6.846;2022-08-01T08:47:11;0.80;;;0.80;;
35494;SDS011;21608;49.300;6.846;2022-08-01T08:50:20;0.43;;;0.43;;
35494;SDS011;21608;49.300;6.846;2022-08-01T08:53:22;0.55;;;0.50;;
35494;SDS011;21608;49.300;6.846;2022-08-01T08:56:24;2.38;;;0.70;;
35494;SDS011;21608;49.300;6.846;2022-08-01T08:59:28;0.65;;;0.60;;
35494;SDS011;21608;49.300;6.846;2022-08-01T09:02:31;0.55;;;0.55;;
35494;SDS011;21608;49.300;6.846;2022-08-01T09:05:33;0.65;;;0.60;;
35494;SDS011;21608;49.300;6.846;2022-08-01T09:08:39;0.60;;;0.60;;
35494;SDS011;21608;49.300;6.846;2022-08-01T09:11:41;0.60;;;0.60;;
35494;SDS011;21608;49.300;6.846;2022-08-01T09:14:53;2.53;;;0.70;;
35494;SDS011;21608;49.300;6.846;2022-08-01T09:17:55;1.25;;;0.70;;
35494;SDS011;21608;49.300;6.846;2022-08-01T09:21:16;0.65;;;0.65;;
35494;SDS011;21608;49.300;6.846;2022-08-01T09:24:24;0.80;;;0.70;;
35494;SDS011;21608;49.300;6.846;2022-08-01T09:27:31;0.70;;;0.70;;
35494;SDS011;21608;49.300;6.846;2022-08-01T09:30:37;1.42;;;0.75;;
35494;SDS011;21608;49.300;6.846;2022-08-01T09:37:00;0.60;;;0.60;;
35494;SDS011;21608;49.300;6.846;2022-08-01T09:40:03;0.60;;;0.40;;
35494;SDS011;21608;49.300;6.846;2022-08-01T09:43:10;0.98;;;0.70;;
35494;SDS011;21608;49.300;6.846;2022-08-01T09:46:15;2.67;;;0.70;;
35494;SDS011;21608;49.300;6.846;2022-08-01T09:49:29;1.27;;;0.65;;
35494;SDS011;21608;49.300;6.846;2022-08-01T09:52:55;0.35;;;0.35;;
35494;SDS011;21608;49.300;6.846;2022-08-01T09:56:10;1.17;;;0.60;;
35494;SDS011;21608;49.300;6.846;2022-08-01T09:59:13;0.50;;;0.50;;
35494;SDS011;21608;49.300;6.846;2022-08-01T10:02:26;1.85;;;0.55;;
35494;SDS011;21608;49.300;6.846;2022-08-01T10:05:34;0.70;;;0.70;;
35494;SDS011;21608;49.300;6.846;2022-08-01T10:08:47;1.20;;;0.77;;
35494;SDS011;21608;49.300;6.846;2022-08-01T10:11:49;1.27;;;0.60;;
35494;SDS011;21608;49.300;6.846;2022-08-01T10:14:51;0.50;;;0.50;;
35494;SDS011;21608;49.300;6.846;2022-08-01T10:17:57;0.73;;;0.70;;
35494;SDS011;21608;49.300;6.846;2022-08-01T10:21:02;1.20;;;0.40;;
35494;SDS011;21608;49.300;6.846;2022-08-01T10:24:11;0.93;;;0.65;;
35494;SDS011;21608;49.300;6.846;2022-08-01T10:27:14;0.75;;;0.60;;
35494;SDS011;21608;49.300;6.846;2022-08-01T10:30:24;0.85;;;0.50;;
35494;SDS011;21608;49.300;6.846;2022-08-01T10:33:28;0.57;;;0.52;;
35494;SDS011;21608;49.300;6.846;2022-08-01T10:36:50;0.95;;;0.55;;
35494;SDS011;21608;49.300;6.846;2022-08-01T10:39:54;1.55;;;0.47;;
35494;SDS011;21608;49.300;6.846;2022-08-01T10:43:17;0.50;;;0.50;;
35494;SDS011;21608;49.300;6.846;2022-08-01T10:46:22;0.55;;;0.55;;
35494;SDS011;21608;49.300;6.846;2022-08-01T10:49:26;1.85;;;0.50;;
35494;SDS011;21608;49.300;6.846;2022-08-01T10:52:31;1.80;;;0.50;;
35494;SDS011;21608;49.300;6.846;2022-08-01T10:55:46;0.60;;;0.60;;
35494;SDS011;21608;49.300;6.846;2022-08-01T10:58:51;0.30;;;0.30;;
35494;SDS011;21608;49.300;6.846;2022-08-01T11:02:11;0.77;;;0.47;;
35494;SDS011;21608;49.300;6.846;2022-08-01T11:05:34;0.30;;;0.30;;
35494;SDS011;21608;49.300;6.846;2022-08-01T11:08:36;2.08;;;0.73;;
35494;SDS011;21608;49.300;6.846;2022-08-01T11:12:01;0.60;;;0.60;;
35494;SDS011;21608;49.300;6.846;2022-08-01T11:18:30;0.68;;;0.50;;
35494;SDS011;21608;49.300;6.846;2022-08-01T11:24:59;0.40;;;0.40;;
35494;SDS011;21608;49.300;6.846;2022-08-01T11:31:30;1.88;;;0.70;;
35494;SDS011;21608;49.300;6.846;2022-08-01T11:34:54;2.72;;;1.15;;
35494;SDS011;21608;49.300;6.846;2022-08-01T11:37:57;1.20;;;1.10;;
35494;SDS011;21608;49.300;6.846;2022-08-01T11:41:29;3.60;;;1.50;;
35494;SDS011;21608;49.300;6.846;2022-08-01T11:44:47;2.83;;;1.58;;
35494;SDS011;21608;49.300;6.846;2022-08-01T11:47:51;2.20;;;1.75;;
35494;SDS011;21608;49.300;6.846;2022-08-01T11:50:54;4.22;;;2.30;;
35494;SDS011;21608;49.300;6.846;2022-08-01T11:53:56;2.13;;;1.55;;
35494;SDS011;21608;49.300;6.846;2022-08-01T11:57:00;2.38;;;1.17;;
35494;SDS011;21608;49.300;6.846;2022-08-01T12:00:16;4.55;;;1.98;;
35494;SDS011;21608;49.300;6.846;2022-08-01T12:03:37;3.88;;;1.85;;
35494;SDS011;21608;49.300;6.846;2022-08-01T12:06:44;3.10;;;1.50;;
35494;SDS011;21608;49.300;6.846;2022-08-01T12:13:05;2.10;;;1.17;;
35494;SDS011;21608;49.300;6.846;2022-08-01T12:16:08;3.03;;;1.60;;
35494;SDS011;21608;49.300;6.846;2022-08-01T12:19:14;2.90;;;1.33;;
35494;SDS011;21608;49.300;6.846;2022-08-01T12:22:23;4.25;;;1.25;;
35494;SDS011;21608;49.300;6.846;2022-08-01T12:25:26;2.03;;;1.60;;
35494;SDS011;21608;49.300;6.846;2022-08-01T12:28:28;3.90;;;1.52;;
35494;SDS011;21608;49.300;6.846;2022-08-01T12:31:30;1.70;;;1.02;;
35494;SDS011;21608;49.300;6.846;2022-08-01T12:34:33;3.55;;;1.75;;
35494;SDS011;21608;49.300;6.846;2022-08-01T12:37:36;3.70;;;1.58;;
35494;SDS011;21608;49.300;6.846;2022-08-01T12:40:43;3.13;;;1.20;;
35494;SDS011;21608;49.300;6.846;2022-08-01T12:43:51;4.40;;;1.40;;
35494;SDS011;21608;49.300;6.846;2022-08-01T12:46:53;2.78;;;1.30;;
35494;SDS011;21608;49.300;6.846;2022-08-01T12:49:56;4.50;;;1.33;;
35494;SDS011;21608;49.300;6.846;2022-08-01T12:52:58;2.53;;;1.25;;
35494;SDS011;21608;49.300;6.846;2022-08-01T12:56:00;2.33;;;1.42;;
35494;SDS011;21608;49.300;6.846;2022-08-01T12:59:02;4.28;;;1.17;;
35494;SDS011;21608;49.300;6.846;2022-08-01T13:02:30;4.32;;;1.60;;
35494;SDS011;21608;49.300;6.846;2022-08-01T13:05:52;2.15;;;1.17;;
35494;SDS011;21608;49.300;6.846;2022-08-01T13:09:08;1.90;;;1.50;;
35494;SDS011;21608;49.300;6.846;2022-08-01T13:12:11;3.88;;;1.65;;
35494;SDS011;21608;49.300;6.846;2022-08-01T13:21:27;3.22;;;1.00;;
35494;SDS011;21608;49.300;6.846;2022-08-01T13:24:50;2.30;;;1.25;;
35494;SDS011;21608;49.300;6.846;2022-08-01T13:28:13;3.35;;;1.10;;
35494;SDS011;21608;49.300;6.846;2022-08-01T13:31:17;2.25;;;1.20;;
35494;SDS011;21608;49.300;6.846;2022-08-01T13:34:29;2.00;;;1.08;;
35494;SDS011;21608;49.300;6.846;2022-08-01T13:37:35;1.35;;;1.00;;
35494;SDS011;21608;49.300;6.846;2022-08-01T13:40:39;1.75;;;1.17;;
35494;SDS011;21608;49.300;6.846;2022-08-01T13:43:41;1.55;;;1.20;;
35494;SDS011;21608;49.300;6.846;2022-08-01T13:47:00;2.45;;;1.23;;
35494;SDS011;21608;49.300;6.846;2022-08-01T13:50:16;2.03;;;0.90;;
35494;SDS011;21608;49.300;6.846;2022-08-01T13:53:18;1.08;;;0.90;;
35494;SDS011;21608;49.300;6.846;2022-08-01T13:56:20;2.42;;;1.00;;
35494;SDS011;21608;49.300;6.846;2022-08-01T13:59:22;1.42;;;1.25;;
35494;SDS011;21608;49.300;6.846;2022-08-01T14:02:24;1.95;;;1.13;;
35494;SDS011;21608;49.300;6.846;2022-08-01T14:05:26;2.28;;;1.10;;
35494;SDS011;21608;49.300;6.846;2022-08-01T14:08:28;2.88;;;0.98;;
35494;SDS011;21608;49.300;6.846;2022-08-01T14:11:31;2.22;;;1.05;;
35494;SDS011;21608;49.300;6.846;2022-08-01T14:14:37;2.97;;;1.08;;
35494;SDS011;21608;49.300;6.846;2022-08-01T14:17:39;0.90;;;0.80;;
35494;SDS011;21608;49.300;6.846;2022-08-01T14:20:48;1.27;;;1.00;;
35494;SDS011;21608;49.300;6.846;2022-08-01T14:23:53;1.23;;;1.00;;
35494;SDS011;21608;49.300;6.846;2022-08-01T14:26:55;0.95;;;0.93;;
35494;SDS011;21608;49.300;6.846;2022-08-01T14:29:57;1.08;;;0.85;;
35494;SDS011;21608;49.300;6.846;2022-08-01T14:33:04;1.80;;;1.00;;
35494;SDS011;21608;49.300;6.846;2022-08-01T14:36:06;1.80;;;0.98;;
35494;SDS011;21608;49.300;6.846;2022-08-01T14:39:28;1.35;;;0.85;;
35494;SDS011;21608;49.300;6.846;2022-08-01T14:42:30;1.48;;;1.00;;
35494;SDS011;21608;49.300;6.846;2022-08-01T14:45:32;1.70;;;1.00;;
35494;SDS011;21608;49.300;6.846;2022-08-01T14:48:34;1.50;;;0.80;;
35494;SDS011;21608;49.300;6.846;2022-08-01T14:51:36;2.47;;;1.20;;
35494;SDS011;21608;49.300;6.846;2022-08-01T14:54:39;3.40;;;1.38;;
35494;SDS011;21608;49.300;6.846;2022-08-01T14:57:41;1.15;;;0.77;;
35494;SDS011;21608;49.300;6.846;2022-08-01T15:00:43;2.10;;;0.70;;
35494;SDS011;21608;49.300;6.846;2022-08-01T15:03:45;1.73;;;0.93;;
35494;SDS011;21608;49.300;6.846;2022-08-01T15:06:47;0.82;;;0.82;;
35494;SDS011;21608;49.300;6.846;2022-08-01T15:09:49;1.67;;;1.00;;
35494;SDS011;21608;49.300;6.846;2022-08-01T15:12:51;1.00;;;0.88;;
35494;SDS011;21608;49.300;6.846;2022-08-01T15:15:53;1.42;;;1.08;;
35494;SDS011;21608;49.300;6.846;2022-08-01T15:19:00;1.90;;;1.20;;
35494;SDS011;21608;49.300;6.846;2022-08-01T15:22:02;0.88;;;0.75;;
35494;SDS011;21608;49.300;6.846;2022-08-01T15:25:04;2.15;;;1.17;;
35494;SDS011;21608;49.300;6.846;2022-08-01T15:28:07;1.05;;;0.73;;
35494;SDS011;21608;49.300;6.846;2022-08-01T15:31:12;0.90;;;0.90;;
35494;SDS011;21608;49.300;6.846;2022-08-01T15:34:14;0.88;;;0.88;;
35494;SDS011;21608;49.300;6.846;2022-08-01T15:37:16;1.60;;;1.08;;
35494;SDS011;21608;49.300;6.846;2022-08-01T15:40:18;2.08;;;1.00;;
35494;SDS011;21608;49.300;6.846;2022-08-01T15:43:20;1.35;;;0.70;;
35494;SDS011;21608;49.300;6.846;2022-08-01T15:46:22;1.08;;;0.70;;
35494;SDS011;21608;49.300;6.846;2022-08-01T15:49:24;0.88;;;0.73;;
35494;SDS011;21608;49.300;6.846;2022-08-01T15:52:27;0.77;;;0.70;;
35494;SDS011;21608;49.300;6.846;2022-08-01T15:55:35;0.93;;;0.73;;
35494;SDS011;21608;49.300;6.846;2022-08-01T15:58:38;1.10;;;0.88;;
35494;SDS011;21608;49.300;6.846;2022-08-01T16:01:41;1.23;;;0.88;;
35494;SDS011;21608;49.300;6.846;2022-08-01T16:04:43;1.60;;;0.80;;
35494;SDS011;21608;49.300;6.846;2022-08-01T16:07:44;5.43;;;1.00;;
35494;SDS011;21608;49.300;6.846;2022-08-01T16:11:01;3.03;;;1.00;;
35494;SDS011;21608;49.300;6.846;2022-08-01T16:14:03;1.50;;;0.90;;
35494;SDS011;21608;49.300;6.846;2022-08-01T16:17:06;2.40;;;0.70;;
35494;SDS011;21608;49.300;6.846;2022-08-01T16:20:08;1.30;;;1.13;;
35494;SDS011;21608;49.300;6.846;2022-08-01T16:23:10;0.50;;;0.50;;
35494;SDS011;21608;49.300;6.846;2022-08-01T16:26:12;1.20;;;0.80;;
35494;SDS011;21608;49.300;6.846;2022-08-01T16:29:28;1.75;;;0.82;;
35494;SDS011;21608;49.300;6.846;2022-08-01T16:32:32;0.80;;;0.70;;
35494;SDS011;21608;49.300;6.846;2022-08-01T16:35:41;1.42;;;0.63;;
35494;SDS011;21608;49.300;6.846;2022-08-01T16:38:50;0.68;;;0.68;;
35494;SDS011;21608;49.300;6.846;2022-08-01T16:41:52;3.10;;;1.05;;
35494;SDS011;21608;49.300;6.846;2022-08-01T16:44:55;0.55;;;0.55;;
35494;SDS011;21608;49.300;6.846;2022-08-01T16:47:59;0.90;;;0.80;;
35494;SDS011;21608;49.300;6.846;2022-08-01T16:51:02;0.70;;;0.70;;
35494;SDS011;21608;49.300;6.846;2022-08-01T16:54:04;0.75;;;0.60;;
35494;SDS011;21608;49.300;6.846;2022-08-01T16:57:26;0.90;;;0.90;;
35494;SDS011;21608;49.300;6.846;2022-08-01T17:00:28;0.90;;;0.70;;
35494;SDS011;21608;49.300;6.846;2022-08-01T17:03:30;0.73;;;0.73;;
35494;SDS011;21608;49.300;6.846;2022-08-01T17:06:52;0.75;;;0.65;;
35494;SDS011;21608;49.300;6.846;2022-08-01T17:09:54;1.80;;;0.88;;
35494;SDS011;21608;49.300;6.846;2022-08-01T17:12:56;1.00;;;0.88;;
35494;SDS011;21608;49.300;6.846;2022-08-01T17:15:58;0.93;;;0.80;;
35494;SDS011;21608;49.300;6.846;2022-08-01T17:19:01;0.50;;;0.50;;
35494;SDS011;21608;49.300;6.846;2022-08-01T17:22:03;0.60;;;0.60;;
35494;SDS011;21608;49.300;6.846;2022-08-01T17:25:05;1.05;;;0.80;;
35494;SDS011;21608;49.300;6.846;2022-08-01T17:28:16;1.02;;;0.63;;
35494;SDS011;21608;49.300;6.846;2022-08-01T17:31:18;0.82;;;0.80;;
35494;SDS011;21608;49.300;6.846;2022-08-01T17:34:20;0.70;;;0.70;;
35494;SDS011;21608;49.300;6.846;2022-08-01T17:37:22;0.68;;;0.65;;
35494;SDS011;21608;49.300;6.846;2022-08-01T17:40:23;1.00;;;0.88;;
35494;SDS011;21608;49.300;6.846;2022-08-01T17:43:40;0.70;;;0.70;;
35494;SDS011;21608;49.300;6.846;2022-08-01T17:46:42;0.88;;;0.70;;
35494;SDS011;21608;49.300;6.846;2022-08-01T17:49:45;2.13;;;0.80;;
35494;SDS011;21608;49.300;6.846;2022-08-01T17:52:55;0.80;;;0.80;;
35494;SDS011;21608;49.300;6.846;2022-08-01T17:55:57;1.23;;;0.60;;
35494;SDS011;21608;49.300;6.846;2022-08-01T17:59:00;1.65;;;0.85;;
35494;SDS011;21608;49.300;6.846;2022-08-01T18:02:02;1.42;;;0.80;;
35494;SDS011;21608;49.300;6.846;2022-08-01T18:05:05;1.65;;;0.98;;
35494;SDS011;21608;49.300;6.846;2022-08-01T18:08:11;0.80;;;0.60;;
35494;SDS011;21608;49.300;6.846;2022-08-01T18:11:14;1.33;;;0.90;;
35494;SDS011;21608;49.300;6.846;2022-08-01T18:14:17;0.93;;;0.70;;
35494;SDS011;21608;49.300;6.846;2022-08-01T18:17:19;0.95;;;0.80;;
35494;SDS011;21608;49.300;6.846;2022-08-01T18:20:20;3.13;;;0.52;;
35494;SDS011;21608;49.300;6.846;2022-08-01T18:23:22;3.67;;;0.60;;
35494;SDS011;21608;49.300;6.846;2022-08-01T18:26:24;0.52;;;0.52;;
35494;SDS011;21608;49.300;6.846;2022-08-01T18:29:26;0.40;;;0.40;;
35494;SDS011;21608;49.300;6.846;2022-08-01T18:32:48;0.60;;;0.57;;
35494;SDS011;21608;49.300;6.846;2022-08-01T18:35:50;0.55;;;0.50;;
35494;SDS011;21608;49.300;6.846;2022-08-01T18:38:54;1.50;;;0.70;;
35494;SDS011;21608;49.300;6.846;2022-08-01T18:41:56;1.10;;;0.70;;
35494;SDS011;21608;49.300;6.846;2022-08-01T18:45:00;0.50;;;0.50;;
35494;SDS011;21608;49.300;6.846;2022-08-01T18:48:02;2.45;;;0.85;;
35494;SDS011;21608;49.300;6.846;2022-08-01T18:51:04;0.50;;;0.50;;
35494;SDS011;21608;49.300;6.846;2022-08-01T18:54:12;0.40;;;0.40;;
35494;SDS011;21608;49.300;6.846;2022-08-01T18:57:14;0.80;;;0.60;;
35494;SDS011;21608;49.300;6.846;2022-08-01T19:00:21;3.35;;;0.90;;
35494;SDS011;21608;49.300;6.846;2022-08-01T19:03:23;1.88;;;0.60;;
35494;SDS011;21608;49.300;6.846;2022-08-01T19:06:24;1.92;;;0.70;;
35494;SDS011;21608;49.300;6.846;2022-08-01T19:09:28;0.77;;;0.60;;